sensor_id;sensor_type;location;lat;lon;timestamp;P1;durP1;ratioP1;P2;durP2;ratioP2
49566;SDS011;35472;50.514;30.448;2023-12-28T00:00:33;4.63;;;2.08;;
49566;SDS011;35472;50.514;30.448;2023-12-28T00:02:58;2.83;;;1.60;;
49566;SDS011;35472;50.514;30.448;2023-12-28T00:05:24;2.90;;;1.15;;
49566;SDS011;35472;50.514;30.448;2023-12-28T00:07:49;3.88;;;2.00;;
49566;SDS011;35472;50.514;30.448;2023-12-28T00:10:22;2.63;;;1.38;;
49566;SDS011;35472;50.514;30.448;2023-12-28T00:12:52;3.70;;;1.48;;
49566;SDS011;35472;50.514;30.448;2023-12-28T00:15:18;4.68;;;2.03;;
49566;SDS011;35472;50.514;30.448;2023-12-28T00:17:45;2.47;;;1.33;;
49566;SDS011;35472;50.514;30.448;2023-12-28T00:20:13;5.22;;;2.42;;
49566;SDS011;35472;50.514;30.448;2023-12-28T00:22:38;5.78;;;2.20;;
49566;SDS011;35472;50.514;30.448;2023-12-28T00:25:04;4.47;;;1.67;;
49566;SDS011;35472;50.514;30.448;2023-12-28T00:27:30;4.05;;;1.98;;
49566;SDS011;35472;50.514;30.448;2023-12-28T00:29:57;2.20;;;1.65;;
49566;SDS011;35472;50.514;30.448;2023-12-28T00:32:23;3.17;;;1.65;;
49566;SDS011;35472;50.514;30.448;2023-12-28T00:34:48;4.03;;;1.50;;
49566;SDS011;35472;50.514;30.448;2023-12-28T00:37:13;3.30;;;1.35;;
49566;SDS011;35472;50.514;30.448;2023-12-28T00:39:39;2.58;;;1.30;;
49566;SDS011;35472;50.514;30.448;2023-12-28T00:42:06;5.72;;;1.90;;
49566;SDS011;35472;50.514;30.448;2023-12-28T00:44:32;4.60;;;1.75;;
49566;SDS011;35472;50.514;30.448;2023-12-28T00:46:57;2.78;;;1.58;;
49566;SDS011;35472;50.514;30.448;2023-12-28T00:49:23;5.07;;;2.13;;
49566;SDS011;35472;50.514;30.448;2023-12-28T00:51:48;4.53;;;2.33;;
49566;SDS011;35472;50.514;30.448;2023-12-28T00:54:14;6.47;;;1.85;;
49566;SDS011;35472;50.514;30.448;2023-12-28T00:56:39;3.05;;;1.40;;
49566;SDS011;35472;50.514;30.448;2023-12-28T00:59:05;7.45;;;2.05;;
49566;SDS011;35472;50.514;30.448;2023-12-28T01:01:31;2.88;;;2.05;;
49566;SDS011;35472;50.514;30.448;2023-12-28T01:03:56;3.85;;;1.80;;
49566;SDS011;35472;50.514;30.448;2023-12-28T01:06:22;4.00;;;1.83;;
49566;SDS011;35472;50.514;30.448;2023-12-28T01:08:47;4.97;;;1.83;;
49566;SDS011;35472;50.514;30.448;2023-12-28T01:11:13;2.40;;;1.98;;
49566;SDS011;35472;50.514;30.448;2023-12-28T01:13:39;3.50;;;2.22;;
49566;SDS011;35472;50.514;30.448;2023-12-28T01:16:05;4.32;;;2.03;;
49566;SDS011;35472;50.514;30.448;2023-12-28T01:18:32;8.05;;;1.73;;
49566;SDS011;35472;50.514;30.448;2023-12-28T01:20:57;2.13;;;1.85;;
49566;SDS011;35472;50.514;30.448;2023-12-28T01:23:23;8.85;;;2.30;;
49566;SDS011;35472;50.514;30.448;2023-12-28T01:25:49;4.35;;;1.65;;
49566;SDS011;35472;50.514;30.448;2023-12-28T01:28:14;6.07;;;2.22;;
49566;SDS011;35472;50.514;30.448;2023-12-28T01:30:41;3.58;;;1.95;;
49566;SDS011;35472;50.514;30.448;2023-12-28T01:33:06;2.55;;;1.92;;
49566;SDS011;35472;50.514;30.448;2023-12-28T01:35:34;3.38;;;1.85;;
49566;SDS011;35472;50.514;30.448;2023-12-28T01:37:59;3.33;;;1.58;;
49566;SDS011;35472;50.514;30.448;2023-12-28T01:40:26;3.17;;;2.15;;
49566;SDS011;35472;50.514;30.448;2023-12-28T01:42:52;2.17;;;1.27;;
49566;SDS011;35472;50.514;30.448;2023-12-28T01:45:19;3.35;;;1.23;;
49566;SDS011;35472;50.514;30.448;2023-12-28T01:47:48;8.75;;;1.70;;
49566;SDS011;35472;50.514;30.448;2023-12-28T01:50:14;4.72;;;2.20;;
49566;SDS011;35472;50.514;30.448;2023-12-28T01:52:39;2.55;;;1.50;;
49566;SDS011;35472;50.514;30.448;2023-12-28T01:55:06;5.75;;;2.38;;
49566;SDS011;35472;50.514;30.448;2023-12-28T01:57:33;1.63;;;1.52;;
49566;SDS011;35472;50.514;30.448;2023-12-28T01:59:59;2.67;;;1.65;;
49566;SDS011;35472;50.514;30.448;2023-12-28T02:02:26;3.22;;;1.58;;
49566;SDS011;35472;50.514;30.448;2023-12-28T02:04:53;2.97;;;2.00;;
49566;SDS011;35472;50.514;30.448;2023-12-28T02:07:20;2.75;;;1.67;;
49566;SDS011;35472;50.514;30.448;2023-12-28T02:09:46;3.50;;;1.80;;
49566;SDS011;35472;50.514;30.448;2023-12-28T02:12:12;4.20;;;1.70;;
49566;SDS011;35472;50.514;30.448;2023-12-28T02:14:38;5.40;;;1.55;;
49566;SDS011;35472;50.514;30.448;2023-12-28T02:17:05;3.40;;;1.48;;
49566;SDS011;35472;50.514;30.448;2023-12-28T02:19:51;3.38;;;2.08;;
49566;SDS011;35472;50.514;30.448;2023-12-28T02:22:19;2.92;;;1.83;;
49566;SDS011;35472;50.514;30.448;2023-12-28T02:24:52;3.20;;;1.63;;
49566;SDS011;35472;50.514;30.448;2023-12-28T02:27:17;2.20;;;1.70;;
49566;SDS011;35472;50.514;30.448;2023-12-28T02:29:43;4.40;;;1.70;;
49566;SDS011;35472;50.514;30.448;2023-12-28T02:32:08;4.53;;;2.65;;
49566;SDS011;35472;50.514;30.448;2023-12-28T02:34:37;3.72;;;1.73;;
49566;SDS011;35472;50.514;30.448;2023-12-28T02:37:05;5.00;;;2.00;;
49566;SDS011;35472;50.514;30.448;2023-12-28T02:39:31;2.50;;;1.95;;
49566;SDS011;35472;50.514;30.448;2023-12-28T02:41:57;4.18;;;1.90;;
49566;SDS011;35472;50.514;30.448;2023-12-28T02:44:22;4.70;;;2.55;;
49566;SDS011;35472;50.514;30.448;2023-12-28T02:46:48;2.65;;;1.55;;
49566;SDS011;35472;50.514;30.448;2023-12-28T02:49:14;3.47;;;1.85;;
49566;SDS011;35472;50.514;30.448;2023-12-28T02:51:40;3.40;;;1.70;;
49566;SDS011;35472;50.514;30.448;2023-12-28T02:54:09;8.93;;;2.20;;
49566;SDS011;35472;50.514;30.448;2023-12-28T02:56:35;4.80;;;1.80;;
49566;SDS011;35472;50.514;30.448;2023-12-28T02:59:00;3.08;;;1.98;;
49566;SDS011;35472;50.514;30.448;2023-12-28T03:01:26;3.13;;;2.22;;
49566;SDS011;35472;50.514;30.448;2023-12-28T03:03:52;2.50;;;1.40;;
49566;SDS011;35472;50.514;30.448;2023-12-28T03:06:21;3.70;;;1.80;;
49566;SDS011;35472;50.514;30.448;2023-12-28T03:08:46;3.75;;;2.00;;
49566;SDS011;35472;50.514;30.448;2023-12-28T03:11:12;5.13;;;2.80;;
49566;SDS011;35472;50.514;30.448;2023-12-28T03:13:37;5.55;;;1.88;;
49566;SDS011;35472;50.514;30.448;2023-12-28T03:16:03;3.60;;;1.88;;
49566;SDS011;35472;50.514;30.448;2023-12-28T03:18:31;5.68;;;1.70;;
49566;SDS011;35472;50.514;30.448;2023-12-28T03:20:56;2.90;;;1.85;;
49566;SDS011;35472;50.514;30.448;2023-12-28T03:23:22;3.78;;;2.15;;
49566;SDS011;35472;50.514;30.448;2023-12-28T03:25:47;2.90;;;1.83;;
49566;SDS011;35472;50.514;30.448;2023-12-28T03:28:13;2.92;;;1.50;;
49566;SDS011;35472;50.514;30.448;2023-12-28T03:30:39;3.58;;;2.00;;
49566;SDS011;35472;50.514;30.448;2023-12-28T03:33:06;4.55;;;1.88;;
49566;SDS011;35472;50.514;30.448;2023-12-28T03:35:31;3.33;;;1.63;;
49566;SDS011;35472;50.514;30.448;2023-12-28T03:37:57;2.50;;;2.20;;
49566;SDS011;35472;50.514;30.448;2023-12-28T03:40:22;4.10;;;1.98;;
49566;SDS011;35472;50.514;30.448;2023-12-28T03:42:50;2.55;;;1.95;;
49566;SDS011;35472;50.514;30.448;2023-12-28T03:45:16;4.47;;;2.75;;
49566;SDS011;35472;50.514;30.448;2023-12-28T03:47:41;5.80;;;2.53;;
49566;SDS011;35472;50.514;30.448;2023-12-28T03:50:08;2.65;;;1.90;;
49566;SDS011;35472;50.514;30.448;2023-12-28T03:52:34;4.68;;;2.10;;
49566;SDS011;35472;50.514;30.448;2023-12-28T03:54:59;3.95;;;2.10;;
49566;SDS011;35472;50.514;30.448;2023-12-28T03:57:25;4.20;;;2.15;;
49566;SDS011;35472;50.514;30.448;2023-12-28T03:59:50;4.63;;;2.50;;
49566;SDS011;35472;50.514;30.448;2023-12-28T04:02:16;6.45;;;1.90;;
49566;SDS011;35472;50.514;30.448;2023-12-28T04:04:41;4.70;;;1.73;;
49566;SDS011;35472;50.514;30.448;2023-12-28T04:07:07;3.05;;;2.67;;
49566;SDS011;35472;50.514;30.448;2023-12-28T04:09:33;3.92;;;1.90;;
49566;SDS011;35472;50.514;30.448;2023-12-28T04:11:59;5.07;;;2.13;;
49566;SDS011;35472;50.514;30.448;2023-12-28T04:14:25;7.70;;;2.83;;
49566;SDS011;35472;50.514;30.448;2023-12-28T04:24:36;3.45;;;2.08;;
49566;SDS011;35472;50.514;30.448;2023-12-28T04:27:02;4.93;;;2.58;;
49566;SDS011;35472;50.514;30.448;2023-12-28T04:29:28;6.10;;;2.40;;
49566;SDS011;35472;50.514;30.448;2023-12-28T04:31:53;4.32;;;2.53;;
49566;SDS011;35472;50.514;30.448;2023-12-28T04:34:19;5.60;;;2.35;;
49566;SDS011;35472;50.514;30.448;2023-12-28T04:36:45;5.97;;;2.83;;
49566;SDS011;35472;50.514;30.448;2023-12-28T04:39:12;5.53;;;2.13;;
49566;SDS011;35472;50.514;30.448;2023-12-28T04:41:38;5.13;;;3.05;;
49566;SDS011;35472;50.514;30.448;2023-12-28T04:44:04;4.53;;;1.98;;
49566;SDS011;35472;50.514;30.448;2023-12-28T04:46:29;4.30;;;1.92;;
49566;SDS011;35472;50.514;30.448;2023-12-28T04:48:54;5.22;;;3.05;;
49566;SDS011;35472;50.514;30.448;2023-12-28T04:51:20;3.55;;;1.80;;
49566;SDS011;35472;50.514;30.448;2023-12-28T04:53:45;8.48;;;3.17;;
49566;SDS011;35472;50.514;30.448;2023-12-28T04:56:11;5.03;;;2.70;;
49566;SDS011;35472;50.514;30.448;2023-12-28T04:58:36;7.22;;;2.95;;
49566;SDS011;35472;50.514;30.448;2023-12-28T05:01:02;5.20;;;2.35;;
49566;SDS011;35472;50.514;30.448;2023-12-28T05:03:28;2.58;;;2.28;;
49566;SDS011;35472;50.514;30.448;2023-12-28T05:05:55;5.57;;;3.25;;
49566;SDS011;35472;50.514;30.448;2023-12-28T05:08:20;5.43;;;2.50;;
49566;SDS011;35472;50.514;30.448;2023-12-28T05:10:46;6.45;;;3.15;;
49566;SDS011;35472;50.514;30.448;2023-12-28T05:13:12;3.60;;;2.00;;
49566;SDS011;35472;50.514;30.448;2023-12-28T05:15:37;4.00;;;3.08;;
49566;SDS011;35472;50.514;30.448;2023-12-28T05:18:02;4.60;;;2.55;;
49566;SDS011;35472;50.514;30.448;2023-12-28T05:20:29;6.60;;;2.90;;
49566;SDS011;35472;50.514;30.448;2023-12-28T05:22:54;7.80;;;2.58;;
49566;SDS011;35472;50.514;30.448;2023-12-28T05:25:19;6.85;;;2.22;;
49566;SDS011;35472;50.514;30.448;2023-12-28T05:27:45;3.85;;;2.30;;
49566;SDS011;35472;50.514;30.448;2023-12-28T05:30:10;7.75;;;2.90;;
49566;SDS011;35472;50.514;30.448;2023-12-28T05:32:36;6.43;;;2.55;;
49566;SDS011;35472;50.514;30.448;2023-12-28T05:35:02;5.68;;;2.95;;
49566;SDS011;35472;50.514;30.448;2023-12-28T05:37:28;7.43;;;3.50;;
49566;SDS011;35472;50.514;30.448;2023-12-28T05:39:54;4.38;;;3.28;;
49566;SDS011;35472;50.514;30.448;2023-12-28T05:42:19;5.38;;;2.20;;
49566;SDS011;35472;50.514;30.448;2023-12-28T05:44:46;3.90;;;2.70;;
49566;SDS011;35472;50.514;30.448;2023-12-28T05:47:12;6.82;;;2.60;;
49566;SDS011;35472;50.514;30.448;2023-12-28T05:49:37;12.38;;;4.50;;
49566;SDS011;35472;50.514;30.448;2023-12-28T05:52:03;6.75;;;2.95;;
49566;SDS011;35472;50.514;30.448;2023-12-28T05:54:28;5.38;;;3.22;;
49566;SDS011;35472;50.514;30.448;2023-12-28T05:56:54;4.57;;;3.55;;
49566;SDS011;35472;50.514;30.448;2023-12-28T05:59:19;5.05;;;3.10;;
49566;SDS011;35472;50.514;30.448;2023-12-28T06:01:46;6.80;;;3.00;;
49566;SDS011;35472;50.514;30.448;2023-12-28T06:04:12;7.10;;;3.58;;
49566;SDS011;35472;50.514;30.448;2023-12-28T06:06:38;4.97;;;2.80;;
49566;SDS011;35472;50.514;30.448;2023-12-28T06:09:03;6.55;;;3.13;;
49566;SDS011;35472;50.514;30.448;2023-12-28T06:11:28;8.30;;;3.50;;
49566;SDS011;35472;50.514;30.448;2023-12-28T06:13:54;6.25;;;3.65;;
49566;SDS011;35472;50.514;30.448;2023-12-28T06:16:19;4.03;;;2.72;;
49566;SDS011;35472;50.514;30.448;2023-12-28T06:18:45;5.45;;;2.95;;
49566;SDS011;35472;50.514;30.448;2023-12-28T06:21:10;6.55;;;3.63;;
49566;SDS011;35472;50.514;30.448;2023-12-28T06:23:35;5.70;;;3.25;;
49566;SDS011;35472;50.514;30.448;2023-12-28T06:26:04;7.28;;;3.92;;
49566;SDS011;35472;50.514;30.448;2023-12-28T06:28:31;6.10;;;3.38;;
49566;SDS011;35472;50.514;30.448;2023-12-28T06:30:57;6.13;;;3.60;;
49566;SDS011;35472;50.514;30.448;2023-12-28T06:33:25;6.95;;;4.07;;
49566;SDS011;35472;50.514;30.448;2023-12-28T06:35:54;5.53;;;3.50;;
49566;SDS011;35472;50.514;30.448;2023-12-28T06:38:19;7.47;;;3.35;;
49566;SDS011;35472;50.514;30.448;2023-12-28T06:40:45;8.35;;;4.18;;
49566;SDS011;35472;50.514;30.448;2023-12-28T06:43:10;9.90;;;4.40;;
49566;SDS011;35472;50.514;30.448;2023-12-28T06:45:36;7.78;;;4.20;;
49566;SDS011;35472;50.514;30.448;2023-12-28T06:48:01;12.02;;;4.63;;
49566;SDS011;35472;50.514;30.448;2023-12-28T06:50:27;7.55;;;5.13;;
49566;SDS011;35472;50.514;30.448;2023-12-28T06:52:52;7.63;;;3.97;;
49566;SDS011;35472;50.514;30.448;2023-12-28T06:55:18;8.90;;;4.15;;
49566;SDS011;35472;50.514;30.448;2023-12-28T06:57:43;9.05;;;4.03;;
49566;SDS011;35472;50.514;30.448;2023-12-28T07:00:09;14.05;;;4.15;;
49566;SDS011;35472;50.514;30.448;2023-12-28T07:02:35;9.60;;;5.10;;
49566;SDS011;35472;50.514;30.448;2023-12-28T07:05:00;6.82;;;4.65;;
49566;SDS011;35472;50.514;30.448;2023-12-28T07:07:26;5.57;;;4.50;;
49566;SDS011;35472;50.514;30.448;2023-12-28T07:09:51;10.80;;;4.45;;
49566;SDS011;35472;50.514;30.448;2023-12-28T07:12:17;9.38;;;4.40;;
49566;SDS011;35472;50.514;30.448;2023-12-28T07:14:45;5.47;;;4.25;;
49566;SDS011;35472;50.514;30.448;2023-12-28T07:17:10;6.63;;;4.03;;
49566;SDS011;35472;50.514;30.448;2023-12-28T07:19:42;12.50;;;5.80;;
49566;SDS011;35472;50.514;30.448;2023-12-28T07:22:08;7.28;;;5.28;;
49566;SDS011;35472;50.514;30.448;2023-12-28T07:24:33;8.82;;;4.50;;
49566;SDS011;35472;50.514;30.448;2023-12-28T07:26:59;10.63;;;4.75;;
49566;SDS011;35472;50.514;30.448;2023-12-28T07:29:24;9.43;;;4.80;;
49566;SDS011;35472;50.514;30.448;2023-12-28T07:31:50;7.18;;;5.00;;
49566;SDS011;35472;50.514;30.448;2023-12-28T07:34:15;9.00;;;4.82;;
49566;SDS011;35472;50.514;30.448;2023-12-28T07:36:40;11.75;;;5.90;;
49566;SDS011;35472;50.514;30.448;2023-12-28T07:39:08;8.73;;;4.90;;
49566;SDS011;35472;50.514;30.448;2023-12-28T07:41:34;10.23;;;5.05;;
49566;SDS011;35472;50.514;30.448;2023-12-28T07:44:01;10.02;;;5.28;;
49566;SDS011;35472;50.514;30.448;2023-12-28T07:46:27;7.93;;;4.88;;
49566;SDS011;35472;50.514;30.448;2023-12-28T07:48:52;8.13;;;4.53;;
49566;SDS011;35472;50.514;30.448;2023-12-28T07:51:18;10.02;;;4.07;;
49566;SDS011;35472;50.514;30.448;2023-12-28T07:53:43;10.07;;;4.75;;
49566;SDS011;35472;50.514;30.448;2023-12-28T07:56:08;6.03;;;4.28;;
49566;SDS011;35472;50.514;30.448;2023-12-28T07:58:34;6.82;;;5.18;;
49566;SDS011;35472;50.514;30.448;2023-12-28T08:01:02;7.88;;;4.90;;
49566;SDS011;35472;50.514;30.448;2023-12-28T08:03:28;16.65;;;7.93;;
49566;SDS011;35472;50.514;30.448;2023-12-28T08:05:53;15.50;;;5.63;;
49566;SDS011;35472;50.514;30.448;2023-12-28T08:08:19;13.32;;;4.88;;
49566;SDS011;35472;50.514;30.448;2023-12-28T08:10:45;7.40;;;5.18;;
49566;SDS011;35472;50.514;30.448;2023-12-28T08:13:12;9.95;;;6.15;;
49566;SDS011;35472;50.514;30.448;2023-12-28T08:15:37;6.55;;;5.47;;
49566;SDS011;35472;50.514;30.448;2023-12-28T08:18:03;7.45;;;5.28;;
49566;SDS011;35472;50.514;30.448;2023-12-28T08:20:29;9.05;;;5.75;;
49566;SDS011;35472;50.514;30.448;2023-12-28T08:22:54;11.10;;;5.80;;
49566;SDS011;35472;50.514;30.448;2023-12-28T08:25:20;11.23;;;5.57;;
49566;SDS011;35472;50.514;30.448;2023-12-28T08:27:45;7.55;;;5.85;;
49566;SDS011;35472;50.514;30.448;2023-12-28T08:30:10;12.68;;;5.38;;
49566;SDS011;35472;50.514;30.448;2023-12-28T08:32:40;8.82;;;5.35;;
49566;SDS011;35472;50.514;30.448;2023-12-28T08:35:06;13.48;;;6.45;;
49566;SDS011;35472;50.514;30.448;2023-12-28T08:37:32;12.05;;;6.72;;
49566;SDS011;35472;50.514;30.448;2023-12-28T08:39:58;11.05;;;5.97;;
49566;SDS011;35472;50.514;30.448;2023-12-28T08:42:23;10.52;;;6.63;;
49566;SDS011;35472;50.514;30.448;2023-12-28T08:44:50;12.27;;;6.32;;
49566;SDS011;35472;50.514;30.448;2023-12-28T08:47:15;11.57;;;5.97;;
49566;SDS011;35472;50.514;30.448;2023-12-28T08:49:41;6.43;;;5.05;;
49566;SDS011;35472;50.514;30.448;2023-12-28T08:52:06;8.95;;;5.78;;
49566;SDS011;35472;50.514;30.448;2023-12-28T08:54:31;7.05;;;4.80;;
49566;SDS011;35472;50.514;30.448;2023-12-28T08:56:57;13.10;;;6.55;;
49566;SDS011;35472;50.514;30.448;2023-12-28T08:59:22;9.27;;;5.97;;
49566;SDS011;35472;50.514;30.448;2023-12-28T09:01:48;10.07;;;5.78;;
49566;SDS011;35472;50.514;30.448;2023-12-28T09:04:13;10.52;;;5.55;;
49566;SDS011;35472;50.514;30.448;2023-12-28T09:06:39;11.13;;;5.35;;
49566;SDS011;35472;50.514;30.448;2023-12-28T09:09:04;10.50;;;6.28;;
49566;SDS011;35472;50.514;30.448;2023-12-28T09:11:31;11.98;;;7.78;;
49566;SDS011;35472;50.514;30.448;2023-12-28T09:13:56;12.45;;;7.18;;
49566;SDS011;35472;50.514;30.448;2023-12-28T09:16:23;13.60;;;7.15;;
49566;SDS011;35472;50.514;30.448;2023-12-28T09:18:48;13.32;;;6.55;;
49566;SDS011;35472;50.514;30.448;2023-12-28T09:21:14;11.38;;;7.40;;
49566;SDS011;35472;50.514;30.448;2023-12-28T09:23:39;8.43;;;6.43;;
49566;SDS011;35472;50.514;30.448;2023-12-28T09:26:08;13.90;;;7.00;;
49566;SDS011;35472;50.514;30.448;2023-12-28T09:28:33;15.02;;;8.13;;
49566;SDS011;35472;50.514;30.448;2023-12-28T09:31:00;11.93;;;6.72;;
49566;SDS011;35472;50.514;30.448;2023-12-28T09:33:28;13.40;;;6.57;;
49566;SDS011;35472;50.514;30.448;2023-12-28T09:35:53;8.40;;;5.82;;
49566;SDS011;35472;50.514;30.448;2023-12-28T09:38:19;11.30;;;6.75;;
49566;SDS011;35472;50.514;30.448;2023-12-28T09:40:44;12.52;;;6.60;;
49566;SDS011;35472;50.514;30.448;2023-12-28T09:43:13;12.65;;;7.28;;
49566;SDS011;35472;50.514;30.448;2023-12-28T09:45:39;13.27;;;8.30;;
49566;SDS011;35472;50.514;30.448;2023-12-28T09:48:05;12.15;;;6.57;;
49566;SDS011;35472;50.514;30.448;2023-12-28T09:50:32;9.63;;;5.95;;
49566;SDS011;35472;50.514;30.448;2023-12-28T09:53:00;12.52;;;6.85;;
49566;SDS011;35472;50.514;30.448;2023-12-28T09:55:25;12.88;;;6.32;;
49566;SDS011;35472;50.514;30.448;2023-12-28T09:57:53;12.32;;;6.65;;
49566;SDS011;35472;50.514;30.448;2023-12-28T10:00:20;12.05;;;6.75;;
49566;SDS011;35472;50.514;30.448;2023-12-28T10:02:46;16.10;;;7.82;;
49566;SDS011;35472;50.514;30.448;2023-12-28T10:05:14;16.23;;;6.85;;
49566;SDS011;35472;50.514;30.448;2023-12-28T10:07:41;9.05;;;6.15;;
49566;SDS011;35472;50.514;30.448;2023-12-28T10:10:08;9.95;;;6.68;;
49566;SDS011;35472;50.514;30.448;2023-12-28T10:12:34;12.00;;;6.72;;
49566;SDS011;35472;50.514;30.448;2023-12-28T10:14:59;12.43;;;7.32;;
49566;SDS011;35472;50.514;30.448;2023-12-28T10:17:25;10.52;;;6.30;;
49566;SDS011;35472;50.514;30.448;2023-12-28T10:19:50;12.25;;;7.43;;
49566;SDS011;35472;50.514;30.448;2023-12-28T10:22:17;14.45;;;7.55;;
49566;SDS011;35472;50.514;30.448;2023-12-28T10:24:46;17.88;;;6.78;;
49566;SDS011;35472;50.514;30.448;2023-12-28T10:27:14;13.95;;;7.60;;
49566;SDS011;35472;50.514;30.448;2023-12-28T10:29:40;11.45;;;6.60;;
49566;SDS011;35472;50.514;30.448;2023-12-28T10:32:05;13.18;;;6.75;;
49566;SDS011;35472;50.514;30.448;2023-12-28T10:34:31;14.10;;;7.00;;
49566;SDS011;35472;50.514;30.448;2023-12-28T10:36:56;12.18;;;5.97;;
49566;SDS011;35472;50.514;30.448;2023-12-28T10:39:24;7.70;;;4.93;;
49566;SDS011;35472;50.514;30.448;2023-12-28T10:41:51;9.73;;;5.68;;
49566;SDS011;35472;50.514;30.448;2023-12-28T10:44:20;12.35;;;7.40;;
49566;SDS011;35472;50.514;30.448;2023-12-28T10:46:51;9.43;;;6.22;;
49566;SDS011;35472;50.514;30.448;2023-12-28T10:49:21;15.15;;;7.28;;
49566;SDS011;35472;50.514;30.448;2023-12-28T10:51:51;10.05;;;6.50;;
49566;SDS011;35472;50.514;30.448;2023-12-28T10:59:57;14.45;;;5.93;;
49566;SDS011;35472;50.514;30.448;2023-12-28T11:02:38;11.38;;;5.70;;
49566;SDS011;35472;50.514;30.448;2023-12-28T11:05:07;14.38;;;5.45;;
49566;SDS011;35472;50.514;30.448;2023-12-28T11:07:33;10.85;;;5.88;;
49566;SDS011;35472;50.514;30.448;2023-12-28T11:10:00;11.48;;;6.43;;
49566;SDS011;35472;50.514;30.448;2023-12-28T11:12:30;14.40;;;6.05;;
49566;SDS011;35472;50.514;30.448;2023-12-28T11:14:56;8.35;;;5.78;;
49566;SDS011;35472;50.514;30.448;2023-12-28T11:17:22;7.35;;;5.05;;
49566;SDS011;35472;50.514;30.448;2023-12-28T11:19:50;10.52;;;5.40;;
49566;SDS011;35472;50.514;30.448;2023-12-28T11:22:18;11.90;;;5.55;;
49566;SDS011;35472;50.514;30.448;2023-12-28T11:24:45;8.88;;;6.03;;
49566;SDS011;35472;50.514;30.448;2023-12-28T11:27:10;9.05;;;5.78;;
49566;SDS011;35472;50.514;30.448;2023-12-28T11:29:36;11.35;;;6.28;;
49566;SDS011;35472;50.514;30.448;2023-12-28T11:32:02;12.40;;;5.65;;
49566;SDS011;35472;50.514;30.448;2023-12-28T11:34:28;10.55;;;5.25;;
49566;SDS011;35472;50.514;30.448;2023-12-28T11:36:55;9.93;;;6.22;;
49566;SDS011;35472;50.514;30.448;2023-12-28T11:42:02;10.05;;;6.13;;
49566;SDS011;35472;50.514;30.448;2023-12-28T11:44:36;6.95;;;5.32;;
49566;SDS011;35472;50.514;30.448;2023-12-28T11:47:16;13.02;;;5.63;;
49566;SDS011;35472;50.514;30.448;2023-12-28T11:49:46;7.35;;;4.40;;
49566;SDS011;35472;50.514;30.448;2023-12-28T11:52:23;10.30;;;5.78;;
49566;SDS011;35472;50.514;30.448;2023-12-28T11:54:50;11.32;;;5.35;;
49566;SDS011;35472;50.514;30.448;2023-12-28T11:57:16;11.70;;;6.07;;
49566;SDS011;35472;50.514;30.448;2023-12-28T11:59:42;10.23;;;5.38;;
49566;SDS011;35472;50.514;30.448;2023-12-28T12:02:09;13.15;;;7.10;;
49566;SDS011;35472;50.514;30.448;2023-12-28T12:04:36;11.63;;;5.85;;
49566;SDS011;35472;50.514;30.448;2023-12-28T12:07:01;15.73;;;7.43;;
49566;SDS011;35472;50.514;30.448;2023-12-28T12:09:29;10.05;;;6.45;;
49566;SDS011;35472;50.514;30.448;2023-12-28T12:11:59;12.35;;;7.32;;
49566;SDS011;35472;50.514;30.448;2023-12-28T12:14:28;13.38;;;7.28;;
49566;SDS011;35472;50.514;30.448;2023-12-28T12:16:56;12.82;;;7.65;;
49566;SDS011;35472;50.514;30.448;2023-12-28T12:19:23;11.63;;;5.88;;
49566;SDS011;35472;50.514;30.448;2023-12-28T12:21:51;9.90;;;6.65;;
49566;SDS011;35472;50.514;30.448;2023-12-28T12:24:17;10.18;;;5.93;;
49566;SDS011;35472;50.514;30.448;2023-12-28T12:26:44;14.65;;;7.97;;
49566;SDS011;35472;50.514;30.448;2023-12-28T12:29:10;17.05;;;7.22;;
49566;SDS011;35472;50.514;30.448;2023-12-28T12:31:36;11.27;;;6.63;;
49566;SDS011;35472;50.514;30.448;2023-12-28T12:34:03;16.27;;;6.95;;
49566;SDS011;35472;50.514;30.448;2023-12-28T12:36:29;11.77;;;7.50;;
49566;SDS011;35472;50.514;30.448;2023-12-28T12:38:54;11.25;;;7.55;;
49566;SDS011;35472;50.514;30.448;2023-12-28T12:41:20;11.70;;;6.10;;
49566;SDS011;35472;50.514;30.448;2023-12-28T12:43:45;9.57;;;6.85;;
49566;SDS011;35472;50.514;30.448;2023-12-28T12:46:11;16.35;;;7.22;;
49566;SDS011;35472;50.514;30.448;2023-12-28T12:48:37;10.80;;;6.43;;
49566;SDS011;35472;50.514;30.448;2023-12-28T12:51:03;11.38;;;6.90;;
49566;SDS011;35472;50.514;30.448;2023-12-28T12:53:34;17.55;;;7.63;;
49566;SDS011;35472;50.514;30.448;2023-12-28T12:56:04;10.98;;;6.65;;
49566;SDS011;35472;50.514;30.448;2023-12-28T12:58:30;12.40;;;6.93;;
49566;SDS011;35472;50.514;30.448;2023-12-28T13:00:58;15.52;;;7.18;;
49566;SDS011;35472;50.514;30.448;2023-12-28T13:03:27;16.00;;;7.95;;
49566;SDS011;35472;50.514;30.448;2023-12-28T13:05:56;15.02;;;7.35;;
49566;SDS011;35472;50.514;30.448;2023-12-28T13:08:24;13.23;;;7.95;;
49566;SDS011;35472;50.514;30.448;2023-12-28T13:10:50;11.35;;;7.65;;
49566;SDS011;35472;50.514;30.448;2023-12-28T13:13:15;19.42;;;9.15;;
49566;SDS011;35472;50.514;30.448;2023-12-28T13:15:41;20.63;;;9.38;;
49566;SDS011;35472;50.514;30.448;2023-12-28T13:18:06;15.38;;;9.05;;
49566;SDS011;35472;50.514;30.448;2023-12-28T13:20:34;15.88;;;9.02;;
49566;SDS011;35472;50.514;30.448;2023-12-28T13:23:02;18.80;;;9.88;;
49566;SDS011;35472;50.514;30.448;2023-12-28T13:25:27;18.35;;;9.82;;
49566;SDS011;35472;50.514;30.448;2023-12-28T13:27:52;18.83;;;11.10;;
49566;SDS011;35472;50.514;30.448;2023-12-28T13:30:18;16.23;;;10.10;;
49566;SDS011;35472;50.514;30.448;2023-12-28T13:32:44;14.15;;;9.02;;
49566;SDS011;35472;50.514;30.448;2023-12-28T13:35:09;15.93;;;10.07;;
49566;SDS011;35472;50.514;30.448;2023-12-28T13:37:35;22.10;;;10.45;;
49566;SDS011;35472;50.514;30.448;2023-12-28T13:40:00;18.92;;;10.50;;
49566;SDS011;35472;50.514;30.448;2023-12-28T13:42:25;21.13;;;11.02;;
49566;SDS011;35472;50.514;30.448;2023-12-28T13:44:54;18.50;;;10.00;;
49566;SDS011;35472;50.514;30.448;2023-12-28T13:47:21;18.80;;;8.90;;
49566;SDS011;35472;50.514;30.448;2023-12-28T13:49:46;19.38;;;10.18;;
49566;SDS011;35472;50.514;30.448;2023-12-28T13:52:12;14.63;;;8.45;;
49566;SDS011;35472;50.514;30.448;2023-12-28T13:54:38;15.85;;;7.47;;
49566;SDS011;35472;50.514;30.448;2023-12-28T13:57:03;10.80;;;7.32;;
49566;SDS011;35472;50.514;30.448;2023-12-28T13:59:29;16.42;;;8.63;;
49566;SDS011;35472;50.514;30.448;2023-12-28T14:01:54;15.18;;;8.50;;
49566;SDS011;35472;50.514;30.448;2023-12-28T14:04:20;11.75;;;6.95;;
49566;SDS011;35472;50.514;30.448;2023-12-28T14:06:45;11.07;;;7.53;;
49566;SDS011;35472;50.514;30.448;2023-12-28T14:09:10;14.82;;;7.90;;
49566;SDS011;35472;50.514;30.448;2023-12-28T14:11:37;12.65;;;7.68;;
49566;SDS011;35472;50.514;30.448;2023-12-28T14:14:02;18.30;;;7.93;;
49566;SDS011;35472;50.514;30.448;2023-12-28T14:16:28;16.20;;;7.50;;
49566;SDS011;35472;50.514;30.448;2023-12-28T14:18:57;18.75;;;7.68;;
49566;SDS011;35472;50.514;30.448;2023-12-28T14:21:23;15.65;;;8.00;;
49566;SDS011;35472;50.514;30.448;2023-12-28T14:23:48;14.20;;;7.65;;
49566;SDS011;35472;50.514;30.448;2023-12-28T14:26:16;19.40;;;8.02;;
49566;SDS011;35472;50.514;30.448;2023-12-28T14:28:42;12.98;;;6.65;;
49566;SDS011;35472;50.514;30.448;2023-12-28T14:31:10;13.88;;;8.00;;
49566;SDS011;35472;50.514;30.448;2023-12-28T14:33:37;16.30;;;8.85;;
49566;SDS011;35472;50.514;30.448;2023-12-28T14:36:05;15.50;;;7.43;;
49566;SDS011;35472;50.514;30.448;2023-12-28T14:38:46;12.20;;;7.38;;